sensor_id;sensor_type;location;lat;lon;timestamp;P1;durP1;ratioP1;P2;durP2;ratioP2
7173;SDS011;3628;48.654;8.932;2023-05-02T00:02:02;3.20;;;1.87;;
7173;SDS011;3628;48.654;8.932;2023-05-02T00:04:28;20.17;;;3.03;;
7173;SDS011;3628;48.654;8.932;2023-05-02T00:06:53;6.00;;;2.27;;
7173;SDS011;3628;48.654;8.932;2023-05-02T00:09:19;2.90;;;2.10;;
7173;SDS011;3628;48.654;8.932;2023-05-02T00:11:45;2.27;;;2.07;;
7173;SDS011;3628;48.654;8.932;2023-05-02T00:14:11;2.30;;;2.10;;
7173;SDS011;3628;48.654;8.932;2023-05-02T00:16:36;1.73;;;1.63;;
7173;SDS011;3628;48.654;8.932;2023-05-02T00:19:02;4.90;;;2.27;;
7173;SDS011;3628;48.654;8.932;2023-05-02T00:21:27;2.30;;;2.07;;
7173;SDS011;3628;48.654;8.932;2023-05-02T00:23:56;2.00;;;1.80;;
7173;SDS011;3628;48.654;8.932;2023-05-02T00:26:22;2.17;;;1.90;;
7173;SDS011;3628;48.654;8.932;2023-05-02T00:28:48;15.30;;;2.20;;
7173;SDS011;3628;48.654;8.932;2023-05-02T00:31:14;295.97;;;15.50;;
7173;SDS011;3628;48.654;8.932;2023-05-02T00:33:39;663.07;;;31.43;;
7173;SDS011;3628;48.654;8.932;2023-05-02T00:36:12;1.30;;;1.20;;
7173;SDS011;3628;48.654;8.932;2023-05-02T00:38:38;1.57;;;1.10;;
7173;SDS011;3628;48.654;8.932;2023-05-02T00:41:04;11.60;;;1.87;;
7173;SDS011;3628;48.654;8.932;2023-05-02T00:43:30;1.33;;;1.17;;
7173;SDS011;3628;48.654;8.932;2023-05-02T00:45:55;138.23;;;7.93;;
7173;SDS011;3628;48.654;8.932;2023-05-02T00:48:21;9.60;;;1.90;;
7173;SDS011;3628;48.654;8.932;2023-05-02T00:50:47;96.77;;;6.70;;
7173;SDS011;3628;48.654;8.932;2023-05-02T00:53:12;1.50;;;1.40;;
7173;SDS011;3628;48.654;8.932;2023-05-02T00:55:39;2.57;;;1.60;;
7173;SDS011;3628;48.654;8.932;2023-05-02T00:58:05;1.53;;;1.43;;
7173;SDS011;3628;48.654;8.932;2023-05-02T01:00:38;18.10;;;2.70;;
7173;SDS011;3628;48.654;8.932;2023-05-02T01:03:16;7.30;;;2.00;;
7173;SDS011;3628;48.654;8.932;2023-05-02T01:06:23;1.57;;;1.47;;
7173;SDS011;3628;48.654;8.932;2023-05-02T01:14:22;3.10;;;1.70;;
7173;SDS011;3628;48.654;8.932;2023-05-02T01:16:50;1.53;;;1.43;;
7173;SDS011;3628;48.654;8.932;2023-05-02T01:19:34;3.00;;;1.80;;
7173;SDS011;3628;48.654;8.932;2023-05-02T01:22:04;9.50;;;2.20;;
7173;SDS011;3628;48.654;8.932;2023-05-02T01:27:42;3.33;;;1.87;;
7173;SDS011;3628;48.654;8.932;2023-05-02T01:30:35;2.20;;;2.00;;
7173;SDS011;3628;48.654;8.932;2023-05-02T01:33:03;31.50;;;4.27;;
7173;SDS011;3628;48.654;8.932;2023-05-02T01:35:30;2.00;;;1.80;;
7173;SDS011;3628;48.654;8.932;2023-05-02T01:37:58;74.30;;;5.83;;
7173;SDS011;3628;48.654;8.932;2023-05-02T01:40:25;122.40;;;9.03;;
7173;SDS011;3628;48.654;8.932;2023-05-02T01:42:51;2.50;;;2.13;;
7173;SDS011;3628;48.654;8.932;2023-05-02T01:45:19;133.60;;;8.33;;
7173;SDS011;3628;48.654;8.932;2023-05-02T01:47:45;2.40;;;2.20;;
7173;SDS011;3628;48.654;8.932;2023-05-02T01:50:13;2.20;;;2.00;;
7173;SDS011;3628;48.654;8.932;2023-05-02T01:52:44;2.20;;;2.00;;
7173;SDS011;3628;48.654;8.932;2023-05-02T01:55:14;2.47;;;2.27;;
7173;SDS011;3628;48.654;8.932;2023-05-02T01:57:41;87.30;;;6.97;;
7173;SDS011;3628;48.654;8.932;2023-05-02T02:00:08;4.90;;;2.60;;
7173;SDS011;3628;48.654;8.932;2023-05-02T02:02:35;2.63;;;2.43;;
7173;SDS011;3628;48.654;8.932;2023-05-02T02:05:03;3.83;;;2.37;;
7173;SDS011;3628;48.654;8.932;2023-05-02T02:07:31;16.67;;;3.33;;
7173;SDS011;3628;48.654;8.932;2023-05-02T02:09:57;2.37;;;2.17;;
7173;SDS011;3628;48.654;8.932;2023-05-02T02:12:25;2.40;;;2.20;;
7173;SDS011;3628;48.654;8.932;2023-05-02T02:15:05;9.07;;;2.77;;
7173;SDS011;3628;48.654;8.932;2023-05-02T02:17:37;2.60;;;2.27;;
7173;SDS011;3628;48.654;8.932;2023-05-02T02:20:06;3.67;;;2.40;;
7173;SDS011;3628;48.654;8.932;2023-05-02T02:22:36;2.77;;;2.50;;
7173;SDS011;3628;48.654;8.932;2023-05-02T02:25:07;2.30;;;2.10;;
7173;SDS011;3628;48.654;8.932;2023-05-02T02:27:36;2.60;;;1.60;;
7173;SDS011;3628;48.654;8.932;2023-05-02T02:30:02;3.00;;;1.80;;
7173;SDS011;3628;48.654;8.932;2023-05-02T02:32:28;1.70;;;1.60;;
7173;SDS011;3628;48.654;8.932;2023-05-02T02:34:54;12.27;;;2.17;;
7173;SDS011;3628;48.654;8.932;2023-05-02T02:37:25;1.70;;;1.50;;
7173;SDS011;3628;48.654;8.932;2023-05-02T02:42:35;1.60;;;1.50;;
7173;SDS011;3628;48.654;8.932;2023-05-02T02:50:35;1.40;;;1.30;;
7173;SDS011;3628;48.654;8.932;2023-05-02T02:53:24;66.77;;;4.93;;
7173;SDS011;3628;48.654;8.932;2023-05-02T02:55:59;5.73;;;1.67;;
7173;SDS011;3628;48.654;8.932;2023-05-02T02:59:13;18.23;;;2.90;;
7173;SDS011;3628;48.654;8.932;2023-05-02T03:01:23;3.17;;;1.60;;
7173;SDS011;3628;48.654;8.932;2023-05-02T03:03:51;1.83;;;1.73;;
7173;SDS011;3628;48.654;8.932;2023-05-02T03:06:18;7.13;;;2.87;;
7173;SDS011;3628;48.654;8.932;2023-05-02T03:08:44;156.13;;;10.60;;
7173;SDS011;3628;48.654;8.932;2023-05-02T03:11:10;2.53;;;1.70;;
7173;SDS011;3628;48.654;8.932;2023-05-02T03:13:36;1.63;;;1.43;;
7173;SDS011;3628;48.654;8.932;2023-05-02T03:16:11;2.13;;;1.80;;
7173;SDS011;3628;48.654;8.932;2023-05-02T03:19:02;2.20;;;2.00;;
7173;SDS011;3628;48.654;8.932;2023-05-02T03:21:29;1.90;;;1.80;;
7173;SDS011;3628;48.654;8.932;2023-05-02T03:23:56;2.23;;;2.00;;
7173;SDS011;3628;48.654;8.932;2023-05-02T03:26:26;2.43;;;1.97;;
7173;SDS011;3628;48.654;8.932;2023-05-02T03:28:52;2.17;;;1.97;;
7173;SDS011;3628;48.654;8.932;2023-05-02T03:31:18;2.10;;;1.90;;
7173;SDS011;3628;48.654;8.932;2023-05-02T03:33:44;1.83;;;1.73;;
7173;SDS011;3628;48.654;8.932;2023-05-02T03:36:10;2.53;;;1.90;;
7173;SDS011;3628;48.654;8.932;2023-05-02T03:38:35;2.93;;;2.03;;
7173;SDS011;3628;48.654;8.932;2023-05-02T03:41:01;2.27;;;1.93;;
7173;SDS011;3628;48.654;8.932;2023-05-02T03:43:27;3.07;;;2.20;;
7173;SDS011;3628;48.654;8.932;2023-05-02T03:45:53;1.90;;;1.80;;
7173;SDS011;3628;48.654;8.932;2023-05-02T03:48:19;2.20;;;1.83;;
7173;SDS011;3628;48.654;8.932;2023-05-02T03:50:45;2.63;;;2.10;;
7173;SDS011;3628;48.654;8.932;2023-05-02T03:53:10;5.10;;;1.83;;
7173;SDS011;3628;48.654;8.932;2023-05-02T03:55:39;2.13;;;1.50;;
7173;SDS011;3628;48.654;8.932;2023-05-02T03:58:05;1.23;;;1.13;;
7173;SDS011;3628;48.654;8.932;2023-05-02T04:00:31;57.47;;;5.63;;
7173;SDS011;3628;48.654;8.932;2023-05-02T04:02:57;1.60;;;1.30;;
7173;SDS011;3628;48.654;8.932;2023-05-02T04:05:25;6.70;;;1.80;;
7173;SDS011;3628;48.654;8.932;2023-05-02T04:07:50;1.80;;;1.70;;
7173;SDS011;3628;48.654;8.932;2023-05-02T04:10:16;1.77;;;1.50;;
7173;SDS011;3628;48.654;8.932;2023-05-02T04:12:42;1.90;;;1.70;;
7173;SDS011;3628;48.654;8.932;2023-05-02T04:15:08;2.10;;;1.77;;
7173;SDS011;3628;48.654;8.932;2023-05-02T04:17:34;2.87;;;1.67;;
7173;SDS011;3628;48.654;8.932;2023-05-02T04:20:00;1.63;;;1.53;;
7173;SDS011;3628;48.654;8.932;2023-05-02T04:22:25;1.97;;;1.87;;
7173;SDS011;3628;48.654;8.932;2023-05-02T04:24:51;2.10;;;1.90;;
7173;SDS011;3628;48.654;8.932;2023-05-02T04:27:17;2.20;;;2.00;;
7173;SDS011;3628;48.654;8.932;2023-05-02T04:29:43;1.90;;;1.80;;
7173;SDS011;3628;48.654;8.932;2023-05-02T04:32:12;2.20;;;2.00;;
7173;SDS011;3628;48.654;8.932;2023-05-02T04:34:38;2.37;;;2.17;;
7173;SDS011;3628;48.654;8.932;2023-05-02T04:37:03;2.83;;;2.07;;
7173;SDS011;3628;48.654;8.932;2023-05-02T04:39:29;2.27;;;2.07;;
7173;SDS011;3628;48.654;8.932;2023-05-02T04:41:55;2.00;;;1.80;;
7173;SDS011;3628;48.654;8.932;2023-05-02T04:44:20;3.67;;;2.33;;
7173;SDS011;3628;48.654;8.932;2023-05-02T04:46:46;2.50;;;2.30;;
7173;SDS011;3628;48.654;8.932;2023-05-02T04:49:11;2.03;;;1.90;;
7173;SDS011;3628;48.654;8.932;2023-05-02T04:51:37;3.27;;;2.20;;
7173;SDS011;3628;48.654;8.932;2023-05-02T04:54:03;4.90;;;2.30;;
7173;SDS011;3628;48.654;8.932;2023-05-02T04:56:28;4.10;;;2.37;;
7173;SDS011;3628;48.654;8.932;2023-05-02T04:58:54;4.60;;;2.50;;
7173;SDS011;3628;48.654;8.932;2023-05-02T05:01:20;5.40;;;2.17;;
7173;SDS011;3628;48.654;8.932;2023-05-02T05:03:45;5.13;;;2.90;;
7173;SDS011;3628;48.654;8.932;2023-05-02T05:06:11;2.73;;;2.53;;
7173;SDS011;3628;48.654;8.932;2023-05-02T05:08:36;3.27;;;2.50;;
7173;SDS011;3628;48.654;8.932;2023-05-02T05:11:02;2.73;;;2.27;;
7173;SDS011;3628;48.654;8.932;2023-05-02T05:13:29;3.53;;;2.40;;
7173;SDS011;3628;48.654;8.932;2023-05-02T05:15:54;4.77;;;2.80;;
7173;SDS011;3628;48.654;8.932;2023-05-02T05:18:20;5.97;;;3.23;;
7173;SDS011;3628;48.654;8.932;2023-05-02T05:20:46;5.97;;;3.10;;
7173;SDS011;3628;48.654;8.932;2023-05-02T05:23:11;5.90;;;3.30;;
7173;SDS011;3628;48.654;8.932;2023-05-02T05:25:37;3.27;;;2.97;;
7173;SDS011;3628;48.654;8.932;2023-05-02T05:28:04;4.30;;;3.67;;
7173;SDS011;3628;48.654;8.932;2023-05-02T05:30:29;4.83;;;3.53;;
7173;SDS011;3628;48.654;8.932;2023-05-02T05:32:55;3.97;;;3.07;;
7173;SDS011;3628;48.654;8.932;2023-05-02T05:35:22;6.87;;;3.30;;
7173;SDS011;3628;48.654;8.932;2023-05-02T05:37:48;3.90;;;3.50;;
7173;SDS011;3628;48.654;8.932;2023-05-02T05:40:14;3.90;;;3.50;;
7173;SDS011;3628;48.654;8.932;2023-05-02T05:42:40;3.90;;;3.10;;
7173;SDS011;3628;48.654;8.932;2023-05-02T05:45:06;3.47;;;3.10;;
7173;SDS011;3628;48.654;8.932;2023-05-02T05:47:33;4.60;;;3.37;;
7173;SDS011;3628;48.654;8.932;2023-05-02T05:49:58;6.20;;;3.80;;
7173;SDS011;3628;48.654;8.932;2023-05-02T05:52:24;4.20;;;3.33;;
7173;SDS011;3628;48.654;8.932;2023-05-02T05:54:53;3.37;;;3.07;;
7173;SDS011;3628;48.654;8.932;2023-05-02T05:57:20;4.60;;;3.13;;
7173;SDS011;3628;48.654;8.932;2023-05-02T05:59:47;4.37;;;3.53;;
7173;SDS011;3628;48.654;8.932;2023-05-02T06:02:12;3.30;;;3.00;;
7173;SDS011;3628;48.654;8.932;2023-05-02T06:04:39;3.03;;;2.60;;
7173;SDS011;3628;48.654;8.932;2023-05-02T06:07:04;4.00;;;3.07;;
7173;SDS011;3628;48.654;8.932;2023-05-02T06:09:30;2.90;;;2.70;;
7173;SDS011;3628;48.654;8.932;2023-05-02T06:11:56;3.43;;;2.90;;
7173;SDS011;3628;48.654;8.932;2023-05-02T06:14:21;3.43;;;3.13;;
7173;SDS011;3628;48.654;8.932;2023-05-02T06:16:47;3.17;;;2.90;;
7173;SDS011;3628;48.654;8.932;2023-05-02T06:19:13;4.17;;;3.07;;
7173;SDS011;3628;48.654;8.932;2023-05-02T06:21:39;4.83;;;3.60;;
7173;SDS011;3628;48.654;8.932;2023-05-02T06:24:05;3.73;;;3.10;;
7173;SDS011;3628;48.654;8.932;2023-05-02T06:26:30;3.50;;;3.20;;
7173;SDS011;3628;48.654;8.932;2023-05-02T06:28:56;4.97;;;3.27;;
7173;SDS011;3628;48.654;8.932;2023-05-02T06:31:22;5.20;;;3.50;;
7173;SDS011;3628;48.654;8.932;2023-05-02T06:33:47;4.57;;;3.70;;
7173;SDS011;3628;48.654;8.932;2023-05-02T06:36:13;5.13;;;3.63;;
7173;SDS011;3628;48.654;8.932;2023-05-02T06:38:38;3.47;;;3.17;;
7173;SDS011;3628;48.654;8.932;2023-05-02T06:41:04;3.83;;;3.40;;
7173;SDS011;3628;48.654;8.932;2023-05-02T06:43:30;3.63;;;3.33;;
7173;SDS011;3628;48.654;8.932;2023-05-02T06:45:56;4.47;;;4.07;;
7173;SDS011;3628;48.654;8.932;2023-05-02T06:48:22;4.67;;;4.20;;
7173;SDS011;3628;48.654;8.932;2023-05-02T06:50:48;7.47;;;4.23;;
7173;SDS011;3628;48.654;8.932;2023-05-02T06:53:16;11.17;;;4.70;;
7173;SDS011;3628;48.654;8.932;2023-05-02T06:55:42;5.30;;;4.67;;
7173;SDS011;3628;48.654;8.932;2023-05-02T06:58:09;6.20;;;5.60;;
7173;SDS011;3628;48.654;8.932;2023-05-02T07:00:34;6.53;;;5.57;;
7173;SDS011;3628;48.654;8.932;2023-05-02T07:03:00;6.93;;;5.60;;
7173;SDS011;3628;48.654;8.932;2023-05-02T07:05:25;7.33;;;5.50;;
7173;SDS011;3628;48.654;8.932;2023-05-02T07:07:51;7.60;;;5.73;;
7173;SDS011;3628;48.654;8.932;2023-05-02T07:10:17;6.97;;;6.03;;
7173;SDS011;3628;48.654;8.932;2023-05-02T07:12:42;9.07;;;7.00;;
7173;SDS011;3628;48.654;8.932;2023-05-02T07:15:08;7.80;;;6.73;;
7173;SDS011;3628;48.654;8.932;2023-05-02T07:17:34;7.97;;;6.93;;
7173;SDS011;3628;48.654;8.932;2023-05-02T07:19:59;7.70;;;6.90;;
7173;SDS011;3628;48.654;8.932;2023-05-02T07:22:25;8.40;;;6.57;;
7173;SDS011;3628;48.654;8.932;2023-05-02T07:24:57;9.73;;;7.60;;
7173;SDS011;3628;48.654;8.932;2023-05-02T07:27:24;8.80;;;7.17;;
7173;SDS011;3628;48.654;8.932;2023-05-02T07:29:50;9.07;;;7.00;;
7173;SDS011;3628;48.654;8.932;2023-05-02T07:32:15;10.07;;;7.43;;
7173;SDS011;3628;48.654;8.932;2023-05-02T07:34:41;8.27;;;7.20;;
7173;SDS011;3628;48.654;8.932;2023-05-02T07:37:07;11.37;;;7.93;;
7173;SDS011;3628;48.654;8.932;2023-05-02T07:39:33;8.57;;;7.73;;
7173;SDS011;3628;48.654;8.932;2023-05-02T07:41:59;11.03;;;8.37;;
7173;SDS011;3628;48.654;8.932;2023-05-02T07:44:25;8.97;;;8.07;;
7173;SDS011;3628;48.654;8.932;2023-05-02T07:46:51;10.47;;;8.27;;
7173;SDS011;3628;48.654;8.932;2023-05-02T07:49:17;11.10;;;9.07;;
7173;SDS011;3628;48.654;8.932;2023-05-02T07:51:43;13.03;;;9.03;;
7173;SDS011;3628;48.654;8.932;2023-05-02T07:54:16;15.13;;;11.23;;
7173;SDS011;3628;48.654;8.932;2023-05-02T07:56:45;13.47;;;10.47;;
7173;SDS011;3628;48.654;8.932;2023-05-02T07:59:11;15.50;;;11.53;;
7173;SDS011;3628;48.654;8.932;2023-05-02T08:01:37;17.97;;;12.77;;
7173;SDS011;3628;48.654;8.932;2023-05-02T08:04:04;17.73;;;13.57;;
7173;SDS011;3628;48.654;8.932;2023-05-02T08:06:29;18.23;;;14.40;;
7173;SDS011;3628;48.654;8.932;2023-05-02T08:08:56;19.00;;;13.13;;
7173;SDS011;3628;48.654;8.932;2023-05-02T08:11:22;18.57;;;14.13;;
7173;SDS011;3628;48.654;8.932;2023-05-02T08:13:49;15.57;;;13.73;;
7173;SDS011;3628;48.654;8.932;2023-05-02T08:16:15;19.40;;;14.00;;
7173;SDS011;3628;48.654;8.932;2023-05-02T08:18:41;18.20;;;14.93;;
7173;SDS011;3628;48.654;8.932;2023-05-02T08:21:06;22.17;;;16.30;;
7173;SDS011;3628;48.654;8.932;2023-05-02T08:23:32;18.70;;;15.47;;
7173;SDS011;3628;48.654;8.932;2023-05-02T08:25:58;22.33;;;17.40;;
7173;SDS011;3628;48.654;8.932;2023-05-02T08:28:23;20.30;;;17.30;;
7173;SDS011;3628;48.654;8.932;2023-05-02T08:30:49;22.63;;;18.80;;
7173;SDS011;3628;48.654;8.932;2023-05-02T08:33:14;23.93;;;19.00;;
7173;SDS011;3628;48.654;8.932;2023-05-02T08:35:40;20.93;;;18.37;;
7173;SDS011;3628;48.654;8.932;2023-05-02T08:38:06;23.37;;;18.03;;
7173;SDS011;3628;48.654;8.932;2023-05-02T08:40:35;22.10;;;17.73;;
7173;SDS011;3628;48.654;8.932;2023-05-02T08:43:02;28.37;;;18.37;;
7173;SDS011;3628;48.654;8.932;2023-05-02T08:45:36;19.03;;;16.30;;
7173;SDS011;3628;48.654;8.932;2023-05-02T08:48:08;19.57;;;17.00;;
7173;SDS011;3628;48.654;8.932;2023-05-02T08:50:39;19.00;;;16.50;;
7173;SDS011;3628;48.654;8.932;2023-05-02T08:53:07;20.13;;;17.17;;
7173;SDS011;3628;48.654;8.932;2023-05-02T08:55:36;19.43;;;16.43;;
7173;SDS011;3628;48.654;8.932;2023-05-02T08:58:05;17.80;;;15.23;;
7173;SDS011;3628;48.654;8.932;2023-05-02T09:00:32;16.23;;;14.40;;
7173;SDS011;3628;48.654;8.932;2023-05-02T09:05:45;16.73;;;13.93;;
7173;SDS011;3628;48.654;8.932;2023-05-02T09:08:20;16.00;;;13.97;;
7173;SDS011;3628;48.654;8.932;2023-05-02T09:10:49;17.30;;;14.60;;
7173;SDS011;3628;48.654;8.932;2023-05-02T09:16:02;17.03;;;14.83;;
7173;SDS011;3628;48.654;8.932;2023-05-02T09:18:29;17.80;;;15.23;;
7173;SDS011;3628;48.654;8.932;2023-05-02T09:21:00;17.20;;;14.60;;
7173;SDS011;3628;48.654;8.932;2023-05-02T09:26:10;16.27;;;14.57;;
7173;SDS011;3628;48.654;8.932;2023-05-02T09:28:36;17.43;;;14.40;;
7173;SDS011;3628;48.654;8.932;2023-05-02T09:31:13;18.00;;;15.33;;
7173;SDS011;3628;48.654;8.932;2023-05-02T09:33:40;19.23;;;15.13;;
7173;SDS011;3628;48.654;8.932;2023-05-02T09:36:08;16.93;;;14.10;;
7173;SDS011;3628;48.654;8.932;2023-05-02T09:38:36;15.87;;;14.17;;
7173;SDS011;3628;48.654;8.932;2023-05-02T09:41:02;16.83;;;14.93;;
7173;SDS011;3628;48.654;8.932;2023-05-02T09:43:29;16.03;;;13.67;;
7173;SDS011;3628;48.654;8.932;2023-05-02T09:46:06;15.77;;;13.50;;
7173;SDS011;3628;48.654;8.932;2023-05-02T09:51:22;15.60;;;13.33;;
7173;SDS011;3628;48.654;8.932;2023-05-02T09:53:49;14.73;;;12.20;;
7173;SDS011;3628;48.654;8.932;2023-05-02T09:56:15;15.40;;;12.70;;
7173;SDS011;3628;48.654;8.932;2023-05-02T09:58:41;16.07;;;12.17;;
7173;SDS011;3628;48.654;8.932;2023-05-02T10:01:06;11.20;;;10.00;;
7173;SDS011;3628;48.654;8.932;2023-05-02T10:03:34;11.27;;;9.93;;
7173;SDS011;3628;48.654;8.932;2023-05-02T10:06:01;13.10;;;10.53;;
7173;SDS011;3628;48.654;8.932;2023-05-02T10:08:28;16.77;;;11.90;;
7173;SDS011;3628;48.654;8.932;2023-05-02T10:10:57;15.00;;;12.27;;
7173;SDS011;3628;48.654;8.932;2023-05-02T10:13:24;14.40;;;11.93;;
7173;SDS011;3628;48.654;8.932;2023-05-02T10:16:05;12.17;;;10.97;;
7173;SDS011;3628;48.654;8.932;2023-05-02T10:21:16;12.93;;;10.37;;
7173;SDS011;3628;48.654;8.932;2023-05-02T10:23:49;10.63;;;9.07;;
7173;SDS011;3628;48.654;8.932;2023-05-02T10:26:17;12.57;;;9.17;;
7173;SDS011;3628;48.654;8.932;2023-05-02T10:28:45;10.57;;;9.47;;
7173;SDS011;3628;48.654;8.932;2023-05-02T10:31:12;12.07;;;10.30;;
7173;SDS011;3628;48.654;8.932;2023-05-02T10:33:39;12.43;;;10.40;;
7173;SDS011;3628;48.654;8.932;2023-05-02T10:36:08;11.77;;;9.70;;
7173;SDS011;3628;48.654;8.932;2023-05-02T10:38:37;12.90;;;10.30;;
7173;SDS011;3628;48.654;8.932;2023-05-02T10:41:04;12.83;;;10.93;;
7173;SDS011;3628;48.654;8.932;2023-05-02T10:43:34;12.20;;;10.87;;
7173;SDS011;3628;48.654;8.932;2023-05-02T10:46:02;10.63;;;9.53;;
7173;SDS011;3628;48.654;8.932;2023-05-02T10:48:27;9.37;;;8.47;;
7173;SDS011;3628;48.654;8.932;2023-05-02T10:50:57;9.87;;;8.87;;
7173;SDS011;3628;48.654;8.932;2023-05-02T10:53:35;10.20;;;9.20;;
7173;SDS011;3628;48.654;8.932;2023-05-02T10:58:37;10.27;;;9.23;;
7173;SDS011;3628;48.654;8.932;2023-05-02T11:06:31;11.43;;;8.98;;
7173;SDS011;3628;48.654;8.932;2023-05-02T11:11:40;10.45;;;8.52;;
7173;SDS011;3628;48.654;8.932;2023-05-02T11:14:07;8.80;;;7.95;;
7173;SDS011;3628;48.654;8.932;2023-05-02T11:24:46;8.93;;;7.90;;
7173;SDS011;3628;48.654;8.932;2023-05-02T11:29:54;12.60;;;8.57;;
7173;SDS011;3628;48.654;8.932;2023-05-02T11:32:24;10.52;;;8.70;;
7173;SDS011;3628;48.654;8.932;2023-05-02T11:40:22;10.10;;;8.10;;
7173;SDS011;3628;48.654;8.932;2023-05-02T11:42:49;9.50;;;8.50;;
7173;SDS011;3628;48.654;8.932;2023-05-02T11:45:15;8.75;;;7.95;;
7173;SDS011;3628;48.654;8.932;2023-05-02T11:47:41;9.05;;;8.15;;
7173;SDS011;3628;48.654;8.932;2023-05-02T11:50:07;9.82;;;8.00;;
7173;SDS011;3628;48.654;8.932;2023-05-02T11:52:40;11.82;;;8.55;;
7173;SDS011;3628;48.654;8.932;2023-05-02T11:55:09;9.70;;;7.45;;
7173;SDS011;3628;48.654;8.932;2023-05-02T11:57:36;8.93;;;6.95;;
7173;SDS011;3628;48.654;8.932;2023-05-02T12:00:02;7.60;;;6.90;;
7173;SDS011;3628;48.654;8.932;2023-05-02T12:02:42;7.28;;;6.57;;
7173;SDS011;3628;48.654;8.932;2023-05-02T12:05:09;8.35;;;6.53;;
7173;SDS011;3628;48.654;8.932;2023-05-02T12:07:40;8.55;;;7.75;;
7173;SDS011;3628;48.654;8.932;2023-05-02T12:10:09;7.90;;;7.10;;
7173;SDS011;3628;48.654;8.932;2023-05-02T12:12:35;8.93;;;7.25;;
7173;SDS011;3628;48.654;8.932;2023-05-02T12:15:03;9.15;;;8.25;;
7173;SDS011;3628;48.654;8.932;2023-05-02T12:17:30;10.20;;;9.18;;
7173;SDS011;3628;48.654;8.932;2023-05-02T12:19:57;10.15;;;9.10;;
7173;SDS011;3628;48.654;8.932;2023-05-02T12:22:23;11.48;;;8.68;;
7173;SDS011;3628;48.654;8.932;2023-05-02T12:24:49;13.48;;;9.30;;
7173;SDS011;3628;48.654;8.932;2023-05-02T12:27:17;11.40;;;9.43;;
7173;SDS011;3628;48.654;8.932;2023-05-02T12:29:44;11.67;;;7.83;;
7173;SDS011;3628;48.654;8.932;2023-05-02T12:32:11;12.63;;;10.17;;
7173;SDS011;3628;48.654;8.932;2023-05-02T12:34:38;16.27;;;12.67;;
7173;SDS011;3628;48.654;8.932;2023-05-02T12:37:04;15.93;;;13.33;;
7173;SDS011;3628;48.654;8.932;2023-05-02T12:39:37;16.13;;;12.23;;
7173;SDS011;3628;48.654;8.932;2023-05-02T12:42:16;15.90;;;12.07;;
7173;SDS011;3628;48.654;8.932;2023-05-02T12:44:44;15.47;;;11.97;;
7173;SDS011;3628;48.654;8.932;2023-05-02T12:47:12;17.30;;;12.77;;
7173;SDS011;3628;48.654;8.932;2023-05-02T12:49:53;14.33;;;11.40;;
7173;SDS011;3628;48.654;8.932;2023-05-02T12:55:25;12.10;;;10.70;;
7173;SDS011;3628;48.654;8.932;2023-05-02T12:58:02;13.10;;;11.70;;
7173;SDS011;3628;48.654;8.932;2023-05-02T13:00:32;13.27;;;10.87;;
7173;SDS011;3628;48.654;8.932;2023-05-02T13:03:00;11.27;;;9.90;;
7173;SDS011;3628;48.654;8.932;2023-05-02T13:05:25;11.20;;;10.00;;
7173;SDS011;3628;48.654;8.932;2023-05-02T13:07:51;13.67;;;11.93;;
7173;SDS011;3628;48.654;8.932;2023-05-02T13:10:17;15.33;;;11.87;;
7173;SDS011;3628;48.654;8.932;2023-05-02T13:12:43;13.47;;;12.07;;
7173;SDS011;3628;48.654;8.932;2023-05-02T13:15:11;16.60;;;12.33;;
7173;SDS011;3628;48.654;8.932;2023-05-02T13:17:37;15.37;;;13.30;;
7173;SDS011;3628;48.654;8.932;2023-05-02T13:20:02;16.83;;;13.03;;
7173;SDS011;3628;48.654;8.932;2023-05-02T13:22:29;13.93;;;11.70;;
7173;SDS011;3628;48.654;8.932;2023-05-02T13:24:54;15.97;;;12.53;;
7173;SDS011;3628;48.654;8.932;2023-05-02T13:27:23;13.13;;;11.60;;
7173;SDS011;3628;48.654;8.932;2023-05-02T13:29:48;13.33;;;11.93;;
7173;SDS011;3628;48.654;8.932;2023-05-02T13:32:14;14.57;;;12.57;;
7173;SDS011;3628;48.654;8.932;2023-05-02T13:34:40;13.70;;;11.77;;
7173;SDS011;3628;48.654;8.932;2023-05-02T13:37:06;16.03;;;11.07;;
7173;SDS011;3628;48.654;8.932;2023-05-02T13:39:32;13.43;;;10.17;;
7173;SDS011;3628;48.654;8.932;2023-05-02T13:41:57;9.60;;;8.43;;
7173;SDS011;3628;48.654;8.932;2023-05-02T13:44:23;11.40;;;9.67;;
7173;SDS011;3628;48.654;8.932;2023-05-02T13:46:48;11.57;;;9.43;;
7173;SDS011;3628;48.654;8.932;2023-05-02T13:49:14;11.87;;;9.77;;
7173;SDS011;3628;48.654;8.932;2023-05-02T13:51:40;14.90;;;10.83;;
7173;SDS011;3628;48.654;8.932;2023-05-02T13:54:05;14.77;;;11.60;;
7173;SDS011;3628;48.654;8.932;2023-05-02T13:56:31;14.80;;;11.13;;
7173;SDS011;3628;48.654;8.932;2023-05-02T13:58:57;11.53;;;10.07;;
7173;SDS011;3628;48.654;8.932;2023-05-02T14:01:22;11.43;;;9.80;;
7173;SDS011;3628;48.654;8.932;2023-05-02T14:03:50;11.97;;;10.70;;
7173;SDS011;3628;48.654;8.932;2023-05-02T14:06:16;11.33;;;8.83;;
7173;SDS011;3628;48.654;8.932;2023-05-02T14:08:42;11.13;;;9.10;;
7173;SDS011;3628;48.654;8.932;2023-05-02T14:11:08;11.07;;;9.87;;
7173;SDS011;3628;48.654;8.932;2023-05-02T14:13:34;11.03;;;9.60;;
7173;SDS011;3628;48.654;8.932;2023-05-02T14:16:00;11.20;;;9.57;;
7173;SDS011;3628;48.654;8.932;2023-05-02T14:18:25;13.20;;;9.97;;
7173;SDS011;3628;48.654;8.932;2023-05-02T14:20:51;10.80;;;9.03;;
7173;SDS011;3628;48.654;8.932;2023-05-02T14:23:16;10.57;;;8.27;;
7173;SDS011;3628;48.654;8.932;2023-05-02T14:25:42;13.10;;;8.93;;
7173;SDS011;3628;48.654;8.932;2023-05-02T14:28:07;10.10;;;7.43;;
7173;SDS011;3628;48.654;8.932;2023-05-02T14:30:33;7.77;;;6.63;;
7173;SDS011;3628;48.654;8.932;2023-05-02T14:32:58;7.03;;;6.33;;
7173;SDS011;3628;48.654;8.932;2023-05-02T14:35:24;11.03;;;6.83;;
7173;SDS011;3628;48.654;8.932;2023-05-02T14:37:49;9.20;;;7.43;;
7173;SDS011;3628;48.654;8.932;2023-05-02T14:40:15;7.73;;;6.13;;
7173;SDS011;3628;48.654;8.932;2023-05-02T14:42:41;7.70;;;6.90;;
7173;SDS011;3628;48.654;8.932;2023-05-02T14:45:07;9.80;;;7.17;;
7173;SDS011;3628;48.654;8.932;2023-05-02T14:47:33;7.70;;;6.87;;
7173;SDS011;3628;48.654;8.932;2023-05-02T14:50:01;8.07;;;7.20;;
7173;SDS011;3628;48.654;8.932;2023-05-02T14:52:27;8.73;;;6.60;;
7173;SDS011;3628;48.654;8.932;2023-05-02T14:54:52;7.20;;;6.20;;
7173;SDS011;3628;48.654;8.932;2023-05-02T14:57:18;7.77;;;6.60;;
7173;SDS011;3628;48.654;8.932;2023-05-02T14:59:43;9.40;;;6.43;;
7173;SDS011;3628;48.654;8.932;2023-05-02T15:02:09;8.30;;;6.13;;
7173;SDS011;3628;48.654;8.932;2023-05-02T15:04:35;9.53;;;6.80;;
7173;SDS011;3628;48.654;8.932;2023-05-02T15:07:00;7.30;;;6.07;;
7173;SDS011;3628;48.654;8.932;2023-05-02T15:09:26;8.00;;;6.20;;
7173;SDS011;3628;48.654;8.932;2023-05-02T15:11:53;9.30;;;6.23;;
7173;SDS011;3628;48.654;8.932;2023-05-02T15:14:19;9.03;;;6.43;;
7173;SDS011;3628;48.654;8.932;2023-05-02T15:16:45;6.80;;;5.40;;
7173;SDS011;3628;48.654;8.932;2023-05-02T15:19:10;6.40;;;5.20;;
7173;SDS011;3628;48.654;8.932;2023-05-02T15:21:36;7.43;;;5.87;;
7173;SDS011;3628;48.654;8.932;2023-05-02T15:24:01;6.93;;;5.40;;
7173;SDS011;3628;48.654;8.932;2023-05-02T15:26:27;10.97;;;6.50;;
7173;SDS011;3628;48.654;8.932;2023-05-02T15:28:53;8.90;;;6.60;;
7173;SDS011;3628;48.654;8.932;2023-05-02T15:31:19;7.80;;;6.10;;
7173;SDS011;3628;48.654;8.932;2023-05-02T15:33:45;8.73;;;6.77;;
7173;SDS011;3628;48.654;8.932;2023-05-02T15:36:11;7.50;;;6.07;;
7173;SDS011;3628;48.654;8.932;2023-05-02T15:38:37;6.80;;;4.83;;
7173;SDS011;3628;48.654;8.932;2023-05-02T15:41:07;6.00;;;4.70;;
7173;SDS011;3628;48.654;8.932;2023-05-02T15:43:34;4.97;;;3.87;;
7173;SDS011;3628;48.654;8.932;2023-05-02T15:46:00;4.03;;;3.23;;
7173;SDS011;3628;48.654;8.932;2023-05-02T15:48:26;4.30;;;3.40;;
7173;SDS011;3628;48.654;8.932;2023-05-02T15:50:53;6.37;;;3.40;;
7173;SDS011;3628;48.654;8.932;2023-05-02T15:53:18;4.93;;;3.00;;
7173;SDS011;3628;48.654;8.932;2023-05-02T15:55:48;4.37;;;3.53;;
7173;SDS011;3628;48.654;8.932;2023-05-02T15:58:15;5.13;;;3.60;;
7173;SDS011;3628;48.654;8.932;2023-05-02T16:00:41;5.67;;;3.97;;
7173;SDS011;3628;48.654;8.932;2023-05-02T16:03:07;5.97;;;3.70;;
7173;SDS011;3628;48.654;8.932;2023-05-02T16:05:33;3.37;;;3.03;;
7173;SDS011;3628;48.654;8.932;2023-05-02T16:07:59;4.17;;;2.93;;